Time,TemperatureF,DewpointF,PressureIn,WindDirection,WindDirectionDegrees,WindSpeedMPH,WindSpeedGustMPH,Humidity,HourlyPrecipIn,Conditions,Clouds,dailyrainin,SolarRadiationWatts/m^2,SoftwareType,DateUTC
2013-06-14 00:01:00,53.4,35.2,29.78,NE,53,2.0,3.0,50,0.00,,,0.00,32767.00,ALWS 1.0-beta,2013-06-14 06:01:00,
2013-06-14 00:06:00,53.1,35.0,29.78,NE,52,0.0,1.0,50,0.00,,,0.00,32767.00,ALWS 1.0-beta,2013-06-14 06:06:00,
2013-06-14 00:11:00,52.7,34.1,29.78,NE,46,3.0,5.0,49,0.00,,,0.00,32767.00,ALWS 1.0-beta,2013-06-14 06:11:00,
2013-06-14 00:16:00,51.7,33.7,29.78,NE,46,2.0,3.0,50,0.00,,,0.00,32767.00,ALWS 1.0-beta,2013-06-14 06:16:00,
2013-06-14 00:21:00,50.9,33.4,29.78,NE,44,3.0,3.0,51,0.00,,,0.00,32767.00,ALWS 1.0-beta,2013-06-14 06:21:00,
2013-06-14 00:26:00,50.3,32.4,29.78,NNE,13,2.0,5.0,50,0.00,,,0.00,32767.00,ALWS 1.0-beta,2013-06-14 06:26:00,
2013-06-14 00:31:00,49.8,31.4,29.78,North,9,0.0,3.0,49,0.00,,,0.00,32767.00,ALWS 1.0-beta,2013-06-14 06:31:00,
2013-06-14 00:36:00,49.9,32.0,29.79,North,9,0.0,0.0,50,0.00,,,0.00,32767.00,ALWS 1.0-beta,2013-06-14 06:36:00,
2013-06-14 00:41:00,49.8,33.4,29.79,North,9,0.0,1.0,53,0.00,,,0.00,32767.00,ALWS 1.0-beta,2013-06-14 06:41:00,
2013-06-14 00:46:00,50.1,34.6,29.79,North,9,0.0,1.0,55,0.00,,,0.00,32767.00,ALWS 1.0-beta,2013-06-14 06:46:00,
2013-06-14 00:51:00,50.1,34.6,29.79,NE,46,4.0,5.0,55,0.00,,,0.00,32767.00,ALWS 1.0-beta,2013-06-14 06:51:00,
2013-06-14 00:56:00,50.1,34.6,29.80,East,80,1.0,5.0,55,0.00,,,0.00,32767.00,ALWS 1.0-beta,2013-06-14 06:56:00,
2013-06-14 01:01:00,49.8,34.8,29.80,East,87,0.0,0.0,56,0.00,,,0.00,32767.00,ALWS 1.0-beta,2013-06-14 07:01:00,
2013-06-14 01:06:00,49.4,34.8,29.80,East,87,0.0,3.0,57,0.00,,,0.00,32767.00,ALWS 1.0-beta,2013-06-14 07:06:00,
2013-06-14 01:11:00,49.1,34.5,29.80,East,87,0.0,0.0,57,0.00,,,0.00,32767.00,ALWS 1.0-beta,2013-06-14 07:11:00,
2013-06-14 01:16:00,48.4,33.9,29.80,East,87,0.0,0.0,57,0.00,,,0.00,32767.00,ALWS 1.0-beta,2013-06-14 07:16:00,
2013-06-14 01:21:00,47.8,33.8,29.81,East,87,4.0,4.0,58,0.00,,,0.00,32767.00,ALWS 1.0-beta,2013-06-14 07:21:00,
2013-06-14 01:26:00,47.7,33.7,29.81,East,89,0.0,0.0,58,0.00,,,0.00,32767.00,ALWS 1.0-beta,2013-06-14 07:26:00,
2013-06-14 01:31:00,47.7,33.2,29.81,East,89,0.0,0.0,57,0.00,,,0.00,32767.00,ALWS 1.0-beta,2013-06-14 07:31:00,
2013-06-14 01:36:00,47.8,33.3,29.81,East,89,0.0,0.0,57,0.00,,,0.00,32767.00,ALWS 1.0-beta,2013-06-14 07:36:00,
2013-06-14 01:41:00,47.8,33.3,29.81,East,89,0.0,3.0,57,0.00,,,0.00,32767.00,ALWS 1.0-beta,2013-06-14 07:41:00,
2013-06-14 01:46:00,47.6,33.1,29.82,East,89,4.0,4.0,57,0.00,,,0.00,32767.00,ALWS 1.0-beta,2013-06-14 07:46:00,
2013-06-14 01:51:00,47.2,33.2,29.82,East,89,2.0,3.0,58,0.00,,,0.00,32767.00,ALWS 1.0-beta,2013-06-14 07:51:00,
2013-06-14 01:56:00,46.7,32.7,29.82,East,88,3.0,4.0,58,0.00,,,0.00,32767.00,ALWS 1.0-beta,2013-06-14 07:56:00,
2013-06-14 02:01:00,46.8,33.2,29.82,ENE,65,4.0,6.0,59,0.00,,,0.00,32767.00,ALWS 1.0-beta,2013-06-14 08:01:00,
2013-06-14 02:06:00,46.5,33.0,29.82,ENE,66,0.0,2.0,59,0.00,,,0.00,32767.00,ALWS 1.0-beta,2013-06-14 08:06:00,
2013-06-14 02:11:00,46.0,32.5,29.82,ENE,66,0.0,0.0,59,0.00,,,0.00,32767.00,ALWS 1.0-beta,2013-06-14 08:11:00,
2013-06-14 02:16:00,45.9,32.4,29.82,ENE,66,3.0,4.0,59,0.00,,,0.00,32767.00,ALWS 1.0-beta,2013-06-14 08:16:00,
2013-06-14 02:21:00,45.3,32.2,29.83,ENE,66,0.0,0.0,60,0.00,,,0.00,32767.00,ALWS 1.0-beta,2013-06-14 08:21:00,
2013-06-14 02:26:00,45.2,32.2,29.82,ENE,66,0.0,0.0,60,0.00,,,0.00,32767.00,ALWS 1.0-beta,2013-06-14 08:26:00,
2013-06-14 02:31:00,45.2,32.2,29.83,ENE,66,0.0,0.0,60,0.00,,,0.00,32767.00,ALWS 1.0-beta,2013-06-14 08:31:00,
2013-06-14 02:36:00,44.6,31.6,29.83,ENE,65,0.0,0.0,60,0.00,,,0.00,32767.00,ALWS 1.0-beta,2013-06-14 08:36:00,
2013-06-14 02:41:00,44.2,31.2,29.83,ENE,66,0.0,0.0,60,0.00,,,0.00,32767.00,ALWS 1.0-beta,2013-06-14 08:41:00,
2013-06-14 02:46:00,44.3,31.7,29.84,ENE,66,0.0,0.0,61,0.00,,,0.00,32767.00,ALWS 1.0-beta,2013-06-14 08:46:00,
2013-06-14 02:51:00,44.9,31.9,29.84,ENE,66,0.0,0.0,60,0.00,,,0.00,32767.00,ALWS 1.0-beta,2013-06-14 08:51:00,
2013-06-14 02:56:00,45.5,32.0,29.84,ENE,66,0.0,0.0,59,0.00,,,0.00,32767.00,ALWS 1.0-beta,2013-06-14 08:56:00,
2013-06-14 03:01:00,45.9,32.0,29.84,ENE,65,4.0,4.0,58,0.00,,,0.00,32767.00,ALWS 1.0-beta,2013-06-14 09:01:00,
2013-06-14 03:06:00,46.0,31.6,29.84,ENE,69,0.0,0.0,57,0.00,,,0.00,32767.00,ALWS 1.0-beta,2013-06-14 09:06:00,
2013-06-14 03:11:00,45.7,31.4,29.84,ENE,74,4.0,4.0,57,0.00,,,0.00,32767.00,ALWS 1.0-beta,2013-06-14 09:11:00,
2013-06-14 03:16:00,45.0,31.1,29.84,ENE,76,0.0,1.0,58,0.00,,,0.00,32767.00,ALWS 1.0-beta,2013-06-14 09:16:00,
2013-06-14 03:21:00,44.4,31.4,29.84,ENE,78,0.0,0.0,60,0.00,,,0.00,32767.00,ALWS 1.0-beta,2013-06-14 09:21:00,
2013-06-14 03:26:00,45.0,31.5,29.84,East,92,3.0,10.0,59,0.00,,,0.00,32767.00,ALWS 1.0-beta,2013-06-14 09:26:00,
2013-06-14 03:31:00,45.0,31.5,29.84,ESE,103,9.0,9.0,59,0.00,,,0.00,32767.00,ALWS 1.0-beta,2013-06-14 09:31:00,
2013-06-14 03:36:00,44.2,30.8,29.84,SE,134,5.0,5.0,59,0.00,,,0.00,32767.00,ALWS 1.0-beta,2013-06-14 09:36:00,
2013-06-14 03:41:00,43.7,30.7,29.84,SE,125,7.0,7.0,60,0.00,,,0.00,32767.00,ALWS 1.0-beta,2013-06-14 09:41:00,
2013-06-14 03:46:00,43.5,31.0,29.84,ESE,105,2.0,5.0,61,0.00,,,0.00,32767.00,ALWS 1.0-beta,2013-06-14 09:46:00,
2013-06-14 03:51:00,43.5,31.0,29.84,East,94,0.0,2.0,61,0.00,,,0.00,32767.00,ALWS 1.0-beta,2013-06-14 09:51:00,
2013-06-14 03:56:00,43.9,30.5,29.85,ENE,77,4.0,13.0,59,0.00,,,0.00,32767.00,ALWS 1.0-beta,2013-06-14 09:56:00,
2013-06-14 04:01:00,44.5,30.2,29.85,ESE,115,5.0,5.0,57,0.00,,,0.00,32767.00,ALWS 1.0-beta,2013-06-14 10:01:00,
2013-06-14 04:06:00,43.7,29.9,29.85,ESE,119,5.0,5.0,58,0.00,,,0.00,32767.00,ALWS 1.0-beta,2013-06-14 10:06:00,
2013-06-14 04:11:00,43.4,29.6,29.85,ESE,110,0.0,5.0,58,0.00,,,0.00,32767.00,ALWS 1.0-beta,2013-06-14 10:11:00,
2013-06-14 04:16:00,42.9,29.6,29.85,ESE,105,1.0,7.0,59,0.00,,,0.00,32767.00,ALWS 1.0-beta,2013-06-14 10:16:00,
2013-06-14 04:21:00,42.5,29.6,29.85,ESE,110,4.0,5.0,60,0.00,,,0.00,32767.00,ALWS 1.0-beta,2013-06-14 10:21:00,
2013-06-14 04:26:00,42.5,29.6,29.86,East,96,0.0,4.0,60,0.00,,,0.00,32767.00,ALWS 1.0-beta,2013-06-14 10:26:00,
2013-06-14 04:31:00,42.3,29.4,29.86,ESE,102,0.0,0.0,60,0.00,,,0.00,32767.00,ALWS 1.0-beta,2013-06-14 10:31:00,
2013-06-14 04:36:00,42.1,29.6,29.86,ESE,102,0.0,0.0,61,0.00,,,0.00,32767.00,ALWS 1.0-beta,2013-06-14 10:36:00,
2013-06-14 04:40:00,41.8,29.4,29.86,ESE,117,0.0,5.0,61,0.00,,,0.00,32767.00,ALWS 1.0-beta,2013-06-14 10:40:00,
2013-06-14 04:45:00,41.9,29.5,29.87,ESE,105,0.0,5.0,61,0.00,,,0.00,32767.00,ALWS 1.0-beta,2013-06-14 10:45:00,
2013-06-14 04:50:00,41.8,29.4,29.87,ESE,106,2.0,6.0,61,0.00,,,0.00,32767.00,ALWS 1.0-beta,2013-06-14 10:50:00,
2013-06-14 04:55:00,42.2,28.9,29.87,ESE,121,3.0,6.0,59,0.00,,,0.00,32767.00,ALWS 1.0-beta,2013-06-14 10:55:00,
2013-06-14 05:00:00,42.6,28.9,29.87,East,84,3.0,6.0,58,0.00,,,0.00,32767.00,ALWS 1.0-beta,2013-06-14 11:00:00,
2013-06-14 05:05:00,42.8,28.6,29.87,ESE,107,3.0,4.0,57,0.00,,,0.00,32767.00,ALWS 1.0-beta,2013-06-14 11:05:00,
2013-06-14 05:10:00,42.9,28.7,29.87,ESE,102,0.0,4.0,57,0.00,,,0.00,32767.00,ALWS 1.0-beta,2013-06-14 11:10:00,
2013-06-14 05:15:00,42.4,28.7,29.88,ESE,103,0.0,0.0,58,0.00,,,0.00,32767.00,ALWS 1.0-beta,2013-06-14 11:15:00,
2013-06-14 05:20:00,42.1,28.0,29.88,East,96,1.0,2.0,57,0.00,,,0.00,32767.00,ALWS 1.0-beta,2013-06-14 11:20:00,
2013-06-14 05:25:00,42.1,28.0,29.88,ESE,102,0.0,0.0,57,0.00,,,0.00,32767.00,ALWS 1.0-beta,2013-06-14 11:25:00,
2013-06-14 05:30:00,42.3,27.7,29.88,East,90,0.0,0.0,56,0.00,,,0.00,32767.00,ALWS 1.0-beta,2013-06-14 11:30:00,
2013-06-14 05:35:00,42.3,27.7,29.89,East,90,0.0,0.0,56,0.00,,,0.00,32767.00,ALWS 1.0-beta,2013-06-14 11:35:00,
2013-06-14 05:40:00,42.1,27.5,29.89,East,90,0.0,0.0,56,0.00,,,0.00,32767.00,ALWS 1.0-beta,2013-06-14 11:40:00,
2013-06-14 05:45:00,42.1,27.5,29.89,East,90,0.0,0.0,56,0.00,,,0.00,32767.00,ALWS 1.0-beta,2013-06-14 11:45:00,
2013-06-14 05:50:00,41.7,28.0,29.90,East,81,3.0,3.0,58,0.00,,,0.00,32767.00,ALWS 1.0-beta,2013-06-14 11:50:00,
2013-06-14 05:55:00,40.8,28.0,29.90,East,80,0.0,0.0,60,0.00,,,0.00,32767.00,ALWS 1.0-beta,2013-06-14 11:55:00,
2013-06-14 06:00:00,40.1,27.8,29.90,East,80,0.0,0.0,61,0.00,,,0.00,32767.00,ALWS 1.0-beta,2013-06-14 12:00:00,
2013-06-14 06:05:00,39.6,27.3,29.91,East,80,0.0,0.0,61,0.00,,,0.00,32767.00,ALWS 1.0-beta,2013-06-14 12:05:00,
2013-06-14 06:10:00,39.6,27.7,29.92,East,80,0.0,0.0,62,0.00,,,0.00,32767.00,ALWS 1.0-beta,2013-06-14 12:10:00,
2013-06-14 06:15:00,39.6,28.1,29.92,East,80,0.0,0.0,63,0.00,,,0.00,32767.00,ALWS 1.0-beta,2013-06-14 12:15:00,
2013-06-14 06:20:00,39.6,28.1,29.92,East,80,0.0,0.0,63,0.00,,,0.00,32767.00,ALWS 1.0-beta,2013-06-14 12:20:00,
2013-06-14 06:25:00,39.7,28.1,29.93,East,81,0.0,0.0,63,0.00,,,0.00,32767.00,ALWS 1.0-beta,2013-06-14 12:25:00,
2013-06-14 06:30:00,40.0,28.4,29.93,East,80,0.0,0.0,63,0.00,,,0.00,32767.00,ALWS 1.0-beta,2013-06-14 12:30:00,
2013-06-14 06:35:00,40.3,28.7,29.93,East,81,0.0,0.0,63,0.00,,,0.00,32767.00,ALWS 1.0-beta,2013-06-14 12:35:00,
2013-06-14 06:40:00,40.7,29.1,29.93,East,80,0.0,0.0,63,0.00,,,0.00,32767.00,ALWS 1.0-beta,2013-06-14 12:40:00,
2013-06-14 06:45:00,40.9,28.9,29.94,East,80,0.0,0.0,62,0.00,,,0.00,32767.00,ALWS 1.0-beta,2013-06-14 12:45:00,
2013-06-14 06:50:00,41.4,29.8,29.93,East,80,0.0,0.0,63,0.00,,,0.00,32767.00,ALWS 1.0-beta,2013-06-14 12:50:00,
2013-06-14 06:55:00,42.4,29.9,29.93,East,80,0.0,0.0,61,0.00,,,0.00,32767.00,ALWS 1.0-beta,2013-06-14 12:55:00,
2013-06-14 07:00:00,43.2,29.9,29.94,East,80,0.0,0.0,59,0.00,,,0.00,32767.00,ALWS 1.0-beta,2013-06-14 13:00:00,
2013-06-14 07:05:00,43.7,29.9,29.94,East,80,0.0,0.0,58,0.00,,,0.00,32767.00,ALWS 1.0-beta,2013-06-14 13:05:00,
2013-06-14 07:10:00,44.2,30.4,29.94,East,80,0.0,0.0,58,0.00,,,0.00,32767.00,ALWS 1.0-beta,2013-06-14 13:10:00,
2013-06-14 07:15:00,44.5,30.7,29.94,East,81,0.0,0.0,58,0.00,,,0.00,32767.00,ALWS 1.0-beta,2013-06-14 13:15:00,
2013-06-14 07:20:00,44.6,30.8,29.95,East,80,0.0,1.0,58,0.00,,,0.00,32767.00,ALWS 1.0-beta,2013-06-14 13:20:00,
2013-06-14 07:25:00,44.8,30.5,29.95,East,80,0.0,0.0,57,0.00,,,0.00,32767.00,ALWS 1.0-beta,2013-06-14 13:25:00,
2013-06-14 07:30:00,45.0,30.7,29.95,East,80,0.0,0.0,57,0.00,,,0.00,32767.00,ALWS 1.0-beta,2013-06-14 13:30:00,
2013-06-14 07:35:00,46.1,30.9,29.95,East,80,0.0,0.0,55,0.00,,,0.00,32767.00,ALWS 1.0-beta,2013-06-14 13:35:00,
2013-06-14 07:40:00,47.1,31.3,29.95,East,80,0.0,0.0,54,0.00,,,0.00,32767.00,ALWS 1.0-beta,2013-06-14 13:40:00,
2013-06-14 07:45:00,48.1,31.3,29.95,East,80,0.0,0.0,52,0.00,,,0.00,32767.00,ALWS 1.0-beta,2013-06-14 13:45:00,
2013-06-14 07:50:00,49.0,32.6,29.95,East,80,0.0,0.0,53,0.00,,,0.00,32767.00,ALWS 1.0-beta,2013-06-14 13:50:00,
2013-06-14 07:55:00,50.4,32.5,29.95,East,80,0.0,1.0,50,0.00,,,0.00,32767.00,ALWS 1.0-beta,2013-06-14 13:55:00,
2013-06-14 08:00:00,51.5,32.0,29.95,East,83,2.0,3.0,47,0.00,,,0.00,32767.00,ALWS 1.0-beta,2013-06-14 14:00:00,
2013-06-14 08:05:00,51.2,31.7,29.95,East,85,0.0,4.0,47,0.00,,,0.00,32767.00,ALWS 1.0-beta,2013-06-14 14:05:00,
2013-06-14 08:10:00,51.2,32.2,29.95,East,86,0.0,3.0,48,0.00,,,0.00,32767.00,ALWS 1.0-beta,2013-06-14 14:10:00,
2013-06-14 08:15:00,51.8,33.3,29.95,East,85,0.0,1.0,49,0.00,,,0.00,32767.00,ALWS 1.0-beta,2013-06-14 14:15:00,
2013-06-14 08:20:00,52.4,33.8,29.95,East,85,0.0,0.0,49,0.00,,,0.00,32767.00,ALWS 1.0-beta,2013-06-14 14:20:00,
2013-06-14 08:25:00,53.0,33.3,29.95,East,85,0.0,3.0,47,0.00,,,0.00,32767.00,ALWS 1.0-beta,2013-06-14 14:25:00,
2013-06-14 08:30:00,53.7,32.9,29.95,East,85,0.0,1.0,45,0.00,,,0.00,32767.00,ALWS 1.0-beta,2013-06-14 14:30:00,
2013-06-14 08:35:00,54.5,33.6,29.95,East,84,1.0,3.0,45,0.00,,,0.00,32767.00,ALWS 1.0-beta,2013-06-14 14:35:00,
2013-06-14 08:40:00,54.0,33.7,29.96,NE,44,0.0,4.0,46,0.00,,,0.00,32767.00,ALWS 1.0-beta,2013-06-14 14:40:00,
2013-06-14 08:45:00,53.3,33.6,29.96,NNE,22,0.0,4.0,47,0.00,,,0.00,32767.00,ALWS 1.0-beta,2013-06-14 14:45:00,
2013-06-14 08:50:00,53.2,34.5,29.96,NNE,22,0.0,0.0,49,0.00,,,0.00,32767.00,ALWS 1.0-beta,2013-06-14 14:50:00,
2013-06-14 08:55:00,53.7,35.0,29.96,NNW,344,0.0,3.0,49,0.00,,,0.00,32767.00,ALWS 1.0-beta,2013-06-14 14:55:00,
2013-06-14 09:00:00,54.0,34.2,29.96,NW,310,3.0,7.0,47,0.00,,,0.00,32767.00,ALWS 1.0-beta,2013-06-14 15:00:00,
2013-06-14 09:05:00,53.6,34.9,29.96,WNW,295,5.0,12.0,49,0.00,,,0.00,32767.00,ALWS 1.0-beta,2013-06-14 15:05:00,
2013-06-14 09:10:00,53.6,34.4,29.96,WNW,284,4.0,10.0,48,0.00,,,0.00,32767.00,ALWS 1.0-beta,2013-06-14 15:10:00,
2013-06-14 09:15:00,53.7,34.0,29.96,WNW,294,7.0,11.0,47,0.00,,,0.00,32767.00,ALWS 1.0-beta,2013-06-14 15:15:00,
2013-06-14 09:20:00,54.1,35.4,29.96,West,281,6.0,11.0,49,0.00,,,0.00,32767.00,ALWS 1.0-beta,2013-06-14 15:20:00,
2013-06-14 09:25:00,54.5,35.2,29.96,NW,309,9.0,12.0,48,0.00,,,0.00,32767.00,ALWS 1.0-beta,2013-06-14 15:25:00,
2013-06-14 09:30:00,54.8,35.0,29.96,NW,325,9.0,11.0,47,0.00,,,0.00,32767.00,ALWS 1.0-beta,2013-06-14 15:30:00,
2013-06-14 09:35:00,55.1,34.7,29.96,WNW,300,4.0,11.0,46,0.00,,,0.00,32767.00,ALWS 1.0-beta,2013-06-14 15:35:00,
2013-06-14 09:40:00,55.4,36.1,29.96,WNW,286,0.0,8.0,48,0.00,,,0.00,32767.00,ALWS 1.0-beta,2013-06-14 15:40:00,
2013-06-14 09:45:00,56.0,33.2,29.96,WNW,283,0.0,12.0,42,0.00,,,0.00,32767.00,ALWS 1.0-beta,2013-06-14 15:45:00,
2013-06-14 09:50:00,56.8,33.4,29.95,WNW,283,0.0,1.0,41,0.00,,,0.00,32767.00,ALWS 1.0-beta,2013-06-14 15:50:00,
2013-06-14 09:55:00,58.2,33.4,29.96,WNW,287,0.0,5.0,39,0.00,,,0.00,32767.00,ALWS 1.0-beta,2013-06-14 15:55:00,
2013-06-14 10:00:00,58.5,34.3,29.95,NW,308,0.0,6.0,40,0.00,,,0.00,32767.00,ALWS 1.0-beta,2013-06-14 16:00:00,
2013-06-14 10:05:00,58.2,34.0,29.95,WNW,293,11.0,11.0,40,0.00,,,0.00,32767.00,ALWS 1.0-beta,2013-06-14 16:05:00,
2013-06-14 10:10:00,57.5,33.4,29.95,West,281,10.0,13.0,40,0.00,,,0.00,32767.00,ALWS 1.0-beta,2013-06-14 16:10:00,
2013-06-14 10:15:00,57.3,33.2,29.95,WNW,299,11.0,11.0,40,0.00,,,0.00,32767.00,ALWS 1.0-beta,2013-06-14 16:15:00,
2013-06-14 10:20:00,57.2,33.1,29.95,WNW,290,12.0,15.0,40,0.00,,,0.00,32767.00,ALWS 1.0-beta,2013-06-14 16:20:00,
2013-06-14 10:25:00,57.8,33.7,29.95,West,276,7.0,9.0,40,0.00,,,0.00,32767.00,ALWS 1.0-beta,2013-06-14 16:25:00,
2013-06-14 10:30:00,57.6,32.8,29.95,WNW,285,7.0,13.0,39,0.00,,,0.00,32767.00,ALWS 1.0-beta,2013-06-14 16:30:00,
2013-06-14 10:35:00,57.9,33.8,29.95,West,263,7.0,7.0,40,0.00,,,0.00,32767.00,ALWS 1.0-beta,2013-06-14 16:35:00,
2013-06-14 10:40:00,58.2,33.4,29.95,West,266,5.0,11.0,39,0.00,,,0.00,32767.00,ALWS 1.0-beta,2013-06-14 16:40:00,
2013-06-14 10:45:00,59.0,33.5,29.95,West,265,5.0,12.0,38,0.00,,,0.00,32767.00,ALWS 1.0-beta,2013-06-14 16:45:00,
2013-06-14 10:50:00,59.0,34.1,29.95,WNW,289,6.0,12.0,39,0.00,,,0.00,32767.00,ALWS 1.0-beta,2013-06-14 16:50:00,
2013-06-14 10:55:00,59.0,32.8,29.95,SW,225,0.0,10.0,37,0.00,,,0.00,32767.00,ALWS 1.0-beta,2013-06-14 16:55:00,
2013-06-14 11:00:00,59.5,33.9,29.95,West,281,6.0,7.0,38,0.00,,,0.00,32767.00,ALWS 1.0-beta,2013-06-14 17:00:00,
2013-06-14 11:05:00,59.0,33.5,29.95,WNW,303,0.0,7.0,38,0.00,,,0.00,32767.00,ALWS 1.0-beta,2013-06-14 17:05:00,
2013-06-14 11:10:00,59.1,32.9,29.95,WNW,303,0.0,9.0,37,0.00,,,0.00,32767.00,ALWS 1.0-beta,2013-06-14 17:10:00,
2013-06-14 11:15:00,59.0,32.1,29.95,WNW,303,4.0,7.0,36,0.00,,,0.00,32767.00,ALWS 1.0-beta,2013-06-14 17:15:00,
2013-06-14 11:20:00,59.9,33.6,29.95,WNW,303,2.0,5.0,37,0.00,,,0.00,32767.00,ALWS 1.0-beta,2013-06-14 17:20:00,
2013-06-14 11:25:00,61.0,32.5,29.95,WNW,302,2.0,5.0,34,0.00,,,0.00,32767.00,ALWS 1.0-beta,2013-06-14 17:25:00,
2013-06-14 11:30:00,62.1,31.1,29.95,WNW,302,0.0,4.0,31,0.00,,,0.00,32767.00,ALWS 1.0-beta,2013-06-14 17:30:00,
2013-06-14 11:35:00,63.4,33.0,29.95,WNW,296,5.0,5.0,32,0.00,,,0.00,32767.00,ALWS 1.0-beta,2013-06-14 17:35:00,
2013-06-14 11:40:00,64.3,31.4,29.95,WNW,288,0.0,3.0,29,0.00,,,0.00,32767.00,ALWS 1.0-beta,2013-06-14 17:40:00,
2013-06-14 11:45:00,64.1,29.5,29.95,WNW,288,0.0,6.0,27,0.00,,,0.00,32767.00,ALWS 1.0-beta,2013-06-14 17:45:00,
2013-06-14 11:50:00,62.9,31.8,29.95,SW,224,5.0,10.0,31,0.00,,,0.00,32767.00,ALWS 1.0-beta,2013-06-14 17:50:00,
2013-06-14 11:55:00,62.4,29.8,29.95,SW,234,0.0,9.0,29,0.00,,,0.00,32767.00,ALWS 1.0-beta,2013-06-14 17:55:00,
2013-06-14 12:00:00,62.7,29.1,29.95,WSW,257,0.0,6.0,28,0.00,,,0.00,32767.00,ALWS 1.0-beta,2013-06-14 18:00:00,
2013-06-14 12:05:00,62.6,29.9,29.95,WSW,249,2.0,6.0,29,0.00,,,0.00,32767.00,ALWS 1.0-beta,2013-06-14 18:05:00,
2013-06-14 12:10:00,63.0,30.3,29.95,SW,217,4.0,7.0,29,0.00,,,0.00,32767.00,ALWS 1.0-beta,2013-06-14 18:10:00,
2013-06-14 12:15:00,64.1,30.4,29.95,South,184,4.0,4.0,28,0.00,,,0.00,32767.00,ALWS 1.0-beta,2013-06-14 18:15:00,
2013-06-14 12:20:00,64.6,32.5,29.95,SSW,204,0.0,10.0,30,0.00,,,0.00,32767.00,ALWS 1.0-beta,2013-06-14 18:20:00,
2013-06-14 12:25:00,65.2,33.8,29.95,SSW,203,0.0,3.0,31,0.00,,,0.00,32767.00,ALWS 1.0-beta,2013-06-14 18:25:00,
2013-06-14 12:30:00,65.5,32.4,29.95,SSW,203,1.0,5.0,29,0.00,,,0.00,32767.00,ALWS 1.0-beta,2013-06-14 18:30:00,
2013-06-14 12:35:00,65.7,33.5,29.95,SSW,203,0.0,0.0,30,0.00,,,0.00,32767.00,ALWS 1.0-beta,2013-06-14 18:35:00,
2013-06-14 12:40:00,66.4,32.3,29.95,SSW,203,0.0,6.0,28,0.00,,,0.00,32767.00,ALWS 1.0-beta,2013-06-14 18:40:00,
2013-06-14 12:45:00,65.9,32.8,29.95,SW,233,0.0,7.0,29,0.00,,,0.00,32767.00,ALWS 1.0-beta,2013-06-14 18:45:00,
2013-06-14 12:50:00,66.1,33.8,29.95,SW,232,0.0,1.0,30,0.00,,,0.00,32767.00,ALWS 1.0-beta,2013-06-14 18:50:00,
2013-06-14 12:55:00,66.0,33.7,29.95,SW,232,0.0,4.0,30,0.00,,,0.00,32767.00,ALWS 1.0-beta,2013-06-14 18:55:00,
2013-06-14 13:00:00,66.2,33.9,29.94,WSW,257,7.0,7.0,30,0.00,,,0.00,32767.00,ALWS 1.0-beta,2013-06-14 19:00:00,
2013-06-14 13:05:00,65.9,33.6,29.94,SW,215,2.0,9.0,30,0.00,,,0.00,32767.00,ALWS 1.0-beta,2013-06-14 19:05:00,
2013-06-14 13:10:00,65.6,34.2,29.94,SW,228,4.0,5.0,31,0.00,,,0.00,32767.00,ALWS 1.0-beta,2013-06-14 19:10:00,
2013-06-14 13:15:00,64.8,33.5,29.94,SW,227,0.0,5.0,31,0.00,,,0.00,32767.00,ALWS 1.0-beta,2013-06-14 19:15:00,
2013-06-14 13:20:00,66.0,33.7,29.94,SW,224,0.0,1.0,30,0.00,,,0.00,32767.00,ALWS 1.0-beta,2013-06-14 19:20:00,
2013-06-14 13:25:00,66.3,32.2,29.93,SW,234,0.0,9.0,28,0.00,,,0.00,32767.00,ALWS 1.0-beta,2013-06-14 19:25:00,
2013-06-14 13:30:00,66.8,36.0,29.93,SW,219,0.0,6.0,32,0.00,,,0.00,32767.00,ALWS 1.0-beta,2013-06-14 19:30:00,
2013-06-14 13:35:00,66.7,33.5,29.93,SSW,210,1.0,7.0,29,0.00,,,0.00,32767.00,ALWS 1.0-beta,2013-06-14 19:35:00,
2013-06-14 13:40:00,66.6,32.5,29.93,SSW,210,0.0,3.0,28,0.00,,,0.00,32767.00,ALWS 1.0-beta,2013-06-14 19:40:00,
2013-06-14 13:45:00,67.1,34.7,29.93,East,90,6.0,8.0,30,0.00,,,0.00,32767.00,ALWS 1.0-beta,2013-06-14 19:45:00,
2013-06-14 13:50:00,68.0,35.4,29.93,SE,133,3.0,3.0,30,0.00,,,0.00,32767.00,ALWS 1.0-beta,2013-06-14 19:50:00,
2013-06-14 13:55:00,68.7,35.2,29.93,South,175,0.0,5.0,29,0.00,,,0.00,32767.00,ALWS 1.0-beta,2013-06-14 19:55:00,
2013-06-14 14:00:00,68.6,38.4,29.93,South,182,0.0,2.0,33,0.00,,,0.00,32767.00,ALWS 1.0-beta,2013-06-14 20:00:00,
2013-06-14 14:05:00,68.2,34.8,29.93,South,182,2.0,2.0,29,0.00,,,0.00,32767.00,ALWS 1.0-beta,2013-06-14 20:05:00,
2013-06-14 14:10:00,67.8,32.6,29.93,SSW,203,3.0,9.0,27,0.00,,,0.00,32767.00,ALWS 1.0-beta,2013-06-14 20:10:00,
2013-06-14 14:15:00,67.1,32.9,29.93,West,259,3.0,9.0,28,0.00,,,0.00,32767.00,ALWS 1.0-beta,2013-06-14 20:15:00,
2013-06-14 14:20:00,66.6,35.0,29.92,West,275,5.0,12.0,31,0.00,,,0.00,32767.00,ALWS 1.0-beta,2013-06-14 20:20:00,
2013-06-14 14:25:00,66.9,33.6,29.92,SW,216,0.0,13.0,29,0.00,,,0.00,32767.00,ALWS 1.0-beta,2013-06-14 20:25:00,
2013-06-14 14:30:00,67.6,32.5,29.92,SW,214,3.0,7.0,27,0.00,,,0.00,32767.00,ALWS 1.0-beta,2013-06-14 20:30:00,
2013-06-14 14:35:00,67.6,34.2,29.92,West,281,0.0,9.0,29,0.00,,,0.00,32767.00,ALWS 1.0-beta,2013-06-14 20:35:00,
2013-06-14 14:40:00,67.4,32.3,29.92,SW,227,6.0,10.0,27,0.00,,,0.00,32767.00,ALWS 1.0-beta,2013-06-14 20:40:00,
2013-06-14 14:45:00,67.7,36.0,29.92,SW,227,0.0,1.0,31,0.00,,,0.00,32767.00,ALWS 1.0-beta,2013-06-14 20:45:00,
2013-06-14 14:50:00,68.9,37.0,29.92,SSW,211,4.0,7.0,31,0.00,,,0.00,32767.00,ALWS 1.0-beta,2013-06-14 20:50:00,
2013-06-14 14:55:00,68.8,37.0,29.92,SSW,192,5.0,6.0,31,0.00,,,0.00,32767.00,ALWS 1.0-beta,2013-06-14 20:55:00,
2013-06-14 15:00:00,69.1,35.5,29.92,SSW,211,0.0,7.0,29,0.00,,,0.00,32767.00,ALWS 1.0-beta,2013-06-14 21:00:00,
2013-06-14 15:05:00,69.6,36.0,29.92,SSW,211,0.0,4.0,29,0.00,,,0.00,32767.00,ALWS 1.0-beta,2013-06-14 21:05:00,
2013-06-14 15:10:00,69.9,37.1,29.91,WSW,237,0.0,6.0,30,0.00,,,0.00,32767.00,ALWS 1.0-beta,2013-06-14 21:10:00,
2013-06-14 15:15:00,70.0,36.3,29.91,WSW,238,4.0,6.0,29,0.00,,,0.00,32767.00,ALWS 1.0-beta,2013-06-14 21:15:00,
2013-06-14 15:20:00,69.1,37.2,29.91,West,280,5.0,5.0,31,0.00,,,0.00,32767.00,ALWS 1.0-beta,2013-06-14 21:20:00,
2013-06-14 15:25:00,68.3,37.3,29.91,WNW,282,9.0,12.0,32,0.00,,,0.00,32767.00,ALWS 1.0-beta,2013-06-14 21:25:00,
2013-06-14 15:30:00,67.8,35.3,29.91,West,277,11.0,15.0,30,0.00,,,0.00,32767.00,ALWS 1.0-beta,2013-06-14 21:30:00,
2013-06-14 15:35:00,67.9,37.0,29.91,SW,219,4.0,11.0,32,0.00,,,0.00,32767.00,ALWS 1.0-beta,2013-06-14 21:35:00,
2013-06-14 15:40:00,67.9,38.5,29.91,West,264,4.0,6.0,34,0.00,,,0.00,32767.00,ALWS 1.0-beta,2013-06-14 21:40:00,
2013-06-14 15:45:00,67.9,34.5,29.91,WSW,256,4.0,7.0,29,0.00,,,0.00,32767.00,ALWS 1.0-beta,2013-06-14 21:45:00,
2013-06-14 15:50:00,68.0,35.4,29.91,WNW,284,5.0,11.0,30,0.00,,,0.00,32767.00,ALWS 1.0-beta,2013-06-14 21:50:00,
2013-06-14 15:55:00,68.5,35.9,29.91,WNW,284,2.0,4.0,30,0.00,,,0.00,32767.00,ALWS 1.0-beta,2013-06-14 21:55:00,
2013-06-14 16:00:00,68.2,36.4,29.91,WNW,286,10.0,12.0,31,0.00,,,0.00,32767.00,ALWS 1.0-beta,2013-06-14 22:00:00,
2013-06-14 16:05:00,67.8,36.9,29.91,West,277,12.0,15.0,32,0.00,,,0.00,32767.00,ALWS 1.0-beta,2013-06-14 22:05:00,
2013-06-14 16:10:00,67.9,40.0,29.91,NW,309,3.0,13.0,36,0.00,,,0.00,32767.00,ALWS 1.0-beta,2013-06-14 22:10:00,
2013-06-14 16:15:00,67.3,36.5,29.91,NW,315,12.0,16.0,32,0.00,,,0.00,32767.00,ALWS 1.0-beta,2013-06-14 22:15:00,
2013-06-14 16:20:00,67.2,35.6,29.91,NW,310,15.0,16.0,31,0.00,,,0.00,32767.00,ALWS 1.0-beta,2013-06-14 22:20:00,
2013-06-14 16:25:00,66.7,38.2,29.91,NW,311,11.0,15.0,35,0.00,,,0.00,32767.00,ALWS 1.0-beta,2013-06-14 22:25:00,
2013-06-14 16:30:00,66.9,36.1,29.91,West,281,11.0,15.0,32,0.00,,,0.00,32767.00,ALWS 1.0-beta,2013-06-14 22:30:00,
2013-06-14 16:35:00,67.2,35.6,29.90,WNW,298,12.0,15.0,31,0.00,,,0.00,32767.00,ALWS 1.0-beta,2013-06-14 22:35:00,
2013-06-14 16:40:00,67.4,35.7,29.90,WNW,296,12.0,13.0,31,0.00,,,0.00,32767.00,ALWS 1.0-beta,2013-06-14 22:40:00,
2013-06-14 16:45:00,67.7,36.0,29.90,WNW,287,9.0,13.0,31,0.00,,,0.00,32767.00,ALWS 1.0-beta,2013-06-14 22:45:00,
2013-06-14 16:50:00,67.6,35.1,29.90,WNW,286,10.0,14.0,30,0.00,,,0.00,32767.00,ALWS 1.0-beta,2013-06-14 22:50:00,
2013-06-14 16:55:00,67.7,34.3,29.90,NW,308,5.0,13.0,29,0.00,,,0.00,32767.00,ALWS 1.0-beta,2013-06-14 22:55:00,
2013-06-14 17:00:00,67.8,34.4,29.90,WNW,284,7.0,10.0,29,0.00,,,0.00,32767.00,ALWS 1.0-beta,2013-06-14 23:00:00,
2013-06-14 17:05:00,68.2,33.9,29.90,West,278,0.0,13.0,28,0.00,,,0.00,32767.00,ALWS 1.0-beta,2013-06-14 23:05:00,
2013-06-14 17:10:00,68.7,36.0,29.90,WNW,303,5.0,10.0,30,0.00,,,0.00,32767.00,ALWS 1.0-beta,2013-06-14 23:10:00,
2013-06-14 17:15:00,68.8,35.3,29.90,NNW,343,12.0,17.0,29,0.00,,,0.00,32767.00,ALWS 1.0-beta,2013-06-14 23:15:00,
2013-06-14 17:20:00,68.6,34.2,29.90,North,355,9.0,11.0,28,0.00,,,0.00,32767.00,ALWS 1.0-beta,2013-06-14 23:20:00,
2013-06-14 17:25:00,68.6,33.3,29.90,NW,317,12.0,13.0,27,0.00,,,0.00,32767.00,ALWS 1.0-beta,2013-06-14 23:25:00,
2013-06-14 17:30:00,68.4,35.8,29.90,NNW,327,7.0,9.0,30,0.00,,,0.00,32767.00,ALWS 1.0-beta,2013-06-14 23:30:00,
2013-06-14 17:35:00,68.1,33.8,29.90,NW,310,6.0,15.0,28,0.00,,,0.00,32767.00,ALWS 1.0-beta,2013-06-14 23:35:00,
2013-06-14 17:40:00,68.2,36.4,29.90,NW,310,8.0,10.0,31,0.00,,,0.00,32767.00,ALWS 1.0-beta,2013-06-14 23:40:00,
2013-06-14 17:45:00,68.5,35.9,29.90,WNW,292,11.0,17.0,30,0.00,,,0.00,32767.00,ALWS 1.0-beta,2013-06-14 23:45:00,
2013-06-14 17:50:00,68.1,33.8,29.90,NW,311,9.0,14.0,28,0.00,,,0.00,32767.00,ALWS 1.0-beta,2013-06-14 23:50:00,
2013-06-14 17:55:00,67.6,33.4,29.90,NW,309,11.0,14.0,28,0.00,,,0.00,32767.00,ALWS 1.0-beta,2013-06-14 23:55:00,
2013-06-14 18:00:00,67.7,35.2,29.90,NNW,327,8.0,12.0,30,0.00,,,0.00,32767.00,ALWS 1.0-beta,2013-06-15 00:00:00,
2013-06-14 18:05:00,67.9,36.2,29.90,NW,319,9.0,12.0,31,0.00,,,0.00,32767.00,ALWS 1.0-beta,2013-06-15 00:05:00,
2013-06-14 18:10:00,67.6,35.1,29.90,NNW,336,2.0,12.0,30,0.00,,,0.00,32767.00,ALWS 1.0-beta,2013-06-15 00:10:00,
2013-06-14 18:15:00,67.6,35.1,29.90,NW,311,12.0,15.0,30,0.00,,,0.00,32767.00,ALWS 1.0-beta,2013-06-15 00:15:00,
2013-06-14 18:20:00,67.4,34.9,29.90,NW,323,10.0,12.0,30,0.00,,,0.00,32767.00,ALWS 1.0-beta,2013-06-15 00:20:00,
2013-06-14 18:25:00,67.1,34.7,29.90,NW,319,10.0,12.0,30,0.00,,,0.00,32767.00,ALWS 1.0-beta,2013-06-15 00:25:00,
2013-06-14 18:30:00,67.1,37.1,29.90,NNW,340,3.0,8.0,33,0.00,,,0.00,32767.00,ALWS 1.0-beta,2013-06-15 00:30:00,
2013-06-14 18:35:00,67.2,33.9,29.90,North,350,0.0,10.0,29,0.00,,,0.00,32767.00,ALWS 1.0-beta,2013-06-15 00:35:00,
2013-06-14 18:40:00,66.9,33.6,29.90,NW,306,6.0,14.0,29,0.00,,,0.00,32767.00,ALWS 1.0-beta,2013-06-15 00:40:00,
2013-06-14 18:45:00,66.7,35.1,29.90,North,9,1.0,10.0,31,0.00,,,0.00,32767.00,ALWS 1.0-beta,2013-06-15 00:45:00,
2013-06-14 18:50:00,67.0,36.2,29.91,NNW,341,12.0,12.0,32,0.00,,,0.00,32767.00,ALWS 1.0-beta,2013-06-15 00:50:00,
2013-06-14 18:55:00,66.4,34.9,29.91,NNW,338,2.0,12.0,31,0.00,,,0.00,32767.00,ALWS 1.0-beta,2013-06-15 00:55:00,
2013-06-14 19:00:00,66.0,34.5,29.91,NNW,346,6.0,11.0,31,0.00,,,0.00,32767.00,ALWS 1.0-beta,2013-06-15 01:00:00,
2013-06-14 19:05:00,66.0,33.7,29.91,NNW,337,6.0,12.0,30,0.00,,,0.00,32767.00,ALWS 1.0-beta,2013-06-15 01:05:00,
2013-06-14 19:10:00,65.7,32.6,29.91,North,360,3.0,13.0,29,0.00,,,0.00,32767.00,ALWS 1.0-beta,2013-06-15 01:10:00,
2013-06-14 19:15:00,65.4,33.2,29.92,NNW,337,8.0,15.0,30,0.00,,,0.00,32767.00,ALWS 1.0-beta,2013-06-15 01:15:00,
2013-06-14 19:20:00,64.8,33.5,29.92,NNW,338,11.0,12.0,31,0.00,,,0.00,32767.00,ALWS 1.0-beta,2013-06-15 01:20:00,
2013-06-14 19:25:00,64.5,32.4,29.92,North,355,3.0,11.0,30,0.00,,,0.00,32767.00,ALWS 1.0-beta,2013-06-15 01:25:00,
2013-06-14 19:30:00,64.6,33.3,29.92,North,355,8.0,12.0,31,0.00,,,0.00,32767.00,ALWS 1.0-beta,2013-06-15 01:30:00,
2013-06-14 19:35:00,64.2,33.0,29.92,NNW,331,3.0,10.0,31,0.00,,,0.00,32767.00,ALWS 1.0-beta,2013-06-15 01:35:00,
2013-06-14 19:40:00,64.1,34.4,29.92,NNW,334,0.0,4.0,33,0.00,,,0.00,32767.00,ALWS 1.0-beta,2013-06-15 01:40:00,
2013-06-14 19:45:00,64.0,33.6,29.92,NNW,337,11.0,11.0,32,0.00,,,0.00,32767.00,ALWS 1.0-beta,2013-06-15 01:45:00,
2013-06-14 19:50:00,63.5,33.1,29.92,North,11,2.0,7.0,32,0.00,,,0.00,32767.00,ALWS 1.0-beta,2013-06-15 01:50:00,
2013-06-14 19:55:00,62.8,33.3,29.93,NNW,333,0.0,6.0,33,0.00,,,0.00,32767.00,ALWS 1.0-beta,2013-06-15 01:55:00,
2013-06-14 20:00:00,62.2,32.8,29.93,NNW,343,2.0,7.0,33,0.00,,,0.00,32767.00,ALWS 1.0-beta,2013-06-15 02:00:00,
2013-06-14 20:05:00,61.5,32.9,29.93,NNW,345,4.0,9.0,34,0.00,,,0.00,32767.00,ALWS 1.0-beta,2013-06-15 02:05:00,
2013-06-14 20:10:00,61.0,33.2,29.93,NNW,345,3.0,7.0,35,0.00,,,0.00,32767.00,ALWS 1.0-beta,2013-06-15 02:10:00,
2013-06-14 20:15:00,60.2,33.2,29.93,NNW,341,1.0,4.0,36,0.00,,,0.00,32767.00,ALWS 1.0-beta,2013-06-15 02:15:00,
2013-06-14 20:20:00,59.5,31.9,29.93,NNW,341,0.0,0.0,35,0.00,,,0.00,32767.00,ALWS 1.0-beta,2013-06-15 02:20:00,
2013-06-14 20:25:00,59.3,31.7,29.94,NNW,340,0.0,0.0,35,0.00,,,0.00,32767.00,ALWS 1.0-beta,2013-06-15 02:25:00,
2013-06-14 20:30:00,59.0,32.8,29.94,NNW,341,0.0,0.0,37,0.00,,,0.00,32767.00,ALWS 1.0-beta,2013-06-15 02:30:00,
2013-06-14 20:35:00,58.6,33.1,29.94,NNW,340,0.0,0.0,38,0.00,,,0.00,32767.00,ALWS 1.0-beta,2013-06-15 02:35:00,
2013-06-14 20:40:00,58.1,32.0,29.94,NNW,340,0.0,3.0,37,0.00,,,0.00,32767.00,ALWS 1.0-beta,2013-06-15 02:40:00,
2013-06-14 20:45:00,57.9,31.8,29.94,NNW,341,3.0,4.0,37,0.00,,,0.00,32767.00,ALWS 1.0-beta,2013-06-15 02:45:00,
2013-06-14 20:50:00,57.7,31.0,29.94,NNW,343,1.0,4.0,36,0.00,,,0.00,32767.00,ALWS 1.0-beta,2013-06-15 02:50:00,
2013-06-14 20:55:00,57.3,31.3,29.94,NNW,348,2.0,5.0,37,0.00,,,0.00,32767.00,ALWS 1.0-beta,2013-06-15 02:55:00,
2013-06-14 21:00:00,56.1,31.5,29.94,NNE,29,3.0,6.0,39,0.00,,,0.00,32767.00,ALWS 1.0-beta,2013-06-15 03:00:00,
2013-06-14 21:05:00,55.1,31.2,29.95,ENE,59,2.0,6.0,40,0.00,,,0.00,32767.00,ALWS 1.0-beta,2013-06-15 03:05:00,
2013-06-14 21:10:00,55.5,29.7,29.95,East,92,6.0,10.0,37,0.00,,,0.00,32767.00,ALWS 1.0-beta,2013-06-15 03:10:00,
2013-06-14 21:15:00,56.6,30.0,29.95,East,94,7.0,11.0,36,0.00,,,0.00,32767.00,ALWS 1.0-beta,2013-06-15 03:15:00,
2013-06-14 21:20:00,56.8,30.1,29.95,East,80,4.0,9.0,36,0.00,,,0.00,32767.00,ALWS 1.0-beta,2013-06-15 03:20:00,
2013-06-14 21:25:00,56.3,29.0,29.95,ENE,74,2.0,10.0,35,0.00,,,0.00,32767.00,ALWS 1.0-beta,2013-06-15 03:25:00,
2013-06-14 21:30:00,55.8,29.3,29.95,ENE,59,3.0,10.0,36,0.00,,,0.00,32767.00,ALWS 1.0-beta,2013-06-15 03:30:00,
2013-06-14 21:35:00,55.5,29.0,29.96,ENE,57,6.0,6.0,36,0.00,,,0.00,32767.00,ALWS 1.0-beta,2013-06-15 03:35:00,
2013-06-14 21:40:00,55.1,29.3,29.96,NNE,28,3.0,4.0,37,0.00,,,0.00,32767.00,ALWS 1.0-beta,2013-06-15 03:40:00,
2013-06-14 21:45:00,54.4,28.7,29.96,NNE,33,9.0,9.0,37,0.00,,,0.00,32767.00,ALWS 1.0-beta,2013-06-15 03:45:00,
2013-06-14 21:50:00,54.5,28.8,29.96,NNE,25,6.0,9.0,37,0.00,,,0.00,32767.00,ALWS 1.0-beta,2013-06-15 03:50:00,
2013-06-14 21:55:00,54.9,28.5,29.96,North,355,5.0,8.0,36,0.00,,,0.00,32767.00,ALWS 1.0-beta,2013-06-15 03:55:00,
2013-06-14 22:00:00,54.8,27.7,29.96,NNE,30,1.0,10.0,35,0.00,,,0.00,32767.00,ALWS 1.0-beta,2013-06-15 04:00:00,
2013-06-14 22:01:00,54.8,27.7,29.96,NNE,28,7.0,10.0,35,0.00,,,0.00,32767.00,ALWS 1.0-beta,2013-06-15 04:01:00,
2013-06-14 22:06:00,54.4,27.3,29.97,NNE,27,4.0,6.0,35,0.00,,,0.00,32767.00,ALWS 1.0-beta,2013-06-15 04:06:00,
2013-06-14 22:11:00,54.4,28.0,29.97,NNE,24,0.0,4.0,36,0.00,,,0.00,32767.00,ALWS 1.0-beta,2013-06-15 04:11:00,
2013-06-14 22:16:00,54.1,27.8,29.98,NNE,24,0.0,0.0,36,0.00,,,0.00,32767.00,ALWS 1.0-beta,2013-06-15 04:16:00,
2013-06-14 22:21:00,53.6,27.3,29.98,NNE,24,0.0,1.0,36,0.00,,,0.00,32767.00,ALWS 1.0-beta,2013-06-15 04:21:00,
2013-06-14 22:26:00,53.3,27.0,29.98,NNE,24,0.0,0.0,36,0.00,,,0.00,32767.00,ALWS 1.0-beta,2013-06-15 04:26:00,
2013-06-14 22:31:00,53.1,28.8,29.98,NNE,24,2.0,2.0,39,0.00,,,0.00,32767.00,ALWS 1.0-beta,2013-06-15 04:31:00,
2013-06-14 22:36:00,52.6,28.4,29.99,East,84,2.0,5.0,39,0.00,,,0.00,32767.00,ALWS 1.0-beta,2013-06-15 04:36:00,
2013-06-14 22:41:00,52.2,29.2,29.99,ENE,78,10.0,10.0,41,0.00,,,0.00,32767.00,ALWS 1.0-beta,2013-06-15 04:41:00,
2013-06-14 22:46:00,52.0,29.6,29.99,East,88,1.0,9.0,42,0.00,,,0.00,32767.00,ALWS 1.0-beta,2013-06-15 04:46:00,
2013-06-14 22:51:00,51.6,29.3,29.99,ESE,102,4.0,10.0,42,0.00,,,0.00,32767.00,ALWS 1.0-beta,2013-06-15 04:51:00,
2013-06-14 22:56:00,51.2,29.5,29.99,ESE,103,5.0,9.0,43,0.00,,,0.00,32767.00,ALWS 1.0-beta,2013-06-15 04:56:00,
2013-06-14 23:01:00,51.3,30.1,29.99,ENE,78,2.0,9.0,44,0.00,,,0.00,32767.00,ALWS 1.0-beta,2013-06-15 05:01:00,
2013-06-14 23:06:00,51.5,30.3,29.99,East,88,2.0,6.0,44,0.00,,,0.00,32767.00,ALWS 1.0-beta,2013-06-15 05:06:00,
2013-06-14 23:11:00,51.3,30.1,29.99,ENE,61,3.0,5.0,44,0.00,,,0.00,32767.00,ALWS 1.0-beta,2013-06-15 05:11:00,
2013-06-14 23:16:00,50.6,30.6,29.99,ENE,66,1.0,8.0,46,0.00,,,0.00,32767.00,ALWS 1.0-beta,2013-06-15 05:16:00,
2013-06-14 23:21:00,50.3,30.9,29.99,East,82,1.0,6.0,47,0.00,,,0.00,32767.00,ALWS 1.0-beta,2013-06-15 05:21:00,
2013-06-14 23:26:00,50.2,30.2,29.99,East,79,0.0,3.0,46,0.00,,,0.00,32767.00,ALWS 1.0-beta,2013-06-15 05:26:00,
2013-06-14 23:31:00,49.6,29.1,29.99,East,79,0.0,0.0,45,0.00,,,0.00,32767.00,ALWS 1.0-beta,2013-06-15 05:31:00,
2013-06-14 23:36:00,49.3,29.4,29.99,East,79,0.0,0.0,46,0.00,,,0.00,32767.00,ALWS 1.0-beta,2013-06-15 05:36:00,
2013-06-14 23:41:00,48.9,29.6,29.99,East,79,0.0,1.0,47,0.00,,,0.00,32767.00,ALWS 1.0-beta,2013-06-15 05:41:00,
2013-06-14 23:46:00,48.4,30.6,29.99,East,79,0.0,0.0,50,0.00,,,0.00,32767.00,ALWS 1.0-beta,2013-06-15 05:46:00,
2013-06-14 23:51:00,47.8,29.6,29.99,East,79,0.0,2.0,49,0.00,,,0.00,32767.00,ALWS 1.0-beta,2013-06-15 05:51:00,
2013-06-14 23:56:00,47.3,28.6,29.99,East,79,1.0,1.0,48,0.00,,,0.00,32767.00,ALWS 1.0-beta,2013-06-15 05:56:00,